Fort Hancock, Texas
Current Conditions -  °F | °C
As of 2:44 PM on Saturday 25 Oct 2014 (Local Time) from MMCS Reporting Station
Clear Clear  
Wind Chill: 86°   Ceiling: Unl
Heat Index: 86°   Visibility: 10mi
Dew Point: 54°   Wind: 0mph
Humidity: 33%   Direction: NA
Pressure: 30.13"   Gusts: NA
Location:  31.3°N, 105.85°W
Report Text: MMCS 252044Z 00000KT 10SM SKC 30/12 A3013 RMK SLP096 57037 957 HZY
Loading
Personal Weather Stations






























Interactive Weather Map
Tropical Storm Tracking
New forecast layout! Learn more

10-Day Weather Forecast

Advertisements
Track Severe Weather on mobile